»·PEaware :: N5055J L08-KSBD

N5055J :: L08-KSBD

FLIGHT INFORMATION

Flight Status: Arrived
Operator: Privately registered:
United States
More flights under this callsign
Pilot: Scott M. (16181)
Aircraft: Unknown
(X-EF)
More flights by this aircraft type
Origin: L08 Borrego Valley
United States
Destination: KSBD San Bernardino Intl
United States
More flights between these airports :: More routes between these airports
Route: +
File this flight plan on PilotEdge
Remarks:
Altitude:
(Current/Filed)
6,500ft
Speed:
(Current/Filed)
100kts
Departed: 13-Aug-18 12:11 PM
Arrived: 13-Aug-18 01:06 PM
Distance/Time
Traveled:
68nm/0:54
Distance/Time
To Go:
Arrived

Flight Plot

Page will automatically refresh every two minutes.


Map Options




Map Legend


Flown Route
Filed Route
Departure Airport
Arrival Airport
Navaid (VOR, NDB)
Fix

Horizontal Profiles

Position Reports

Time Latitude Longitude Heading Altitude Ground
Speed
13-Aug-18 12:05 33.257760 -116.323794 179 518ft 0kts
13-Aug-18 12:06 33.257620 -116.323911 90 518ft 0kts
13-Aug-18 12:07 33.257620 -116.323911 90 518ft 0kts
13-Aug-18 12:08 33.257620 -116.323911 90 518ft 0kts
13-Aug-18 12:09 33.257620 -116.323911 90 518ft 0kts
13-Aug-18 12:10 33.258320 -116.321452 89 518ft 18kts
13-Aug-18 12:11 33.258682 -116.317492 1 521ft 10kts
13-Aug-18 12:12 33.259292 -116.335636 271 1542ft 77kts
13-Aug-18 12:13 33.274798 -116.348682 328 2644ft 64kts
13-Aug-18 12:14 33.289753 -116.361771 325 3709ft 63kts
13-Aug-18 12:15 33.304397 -116.377150 316 4573ft 83kts
13-Aug-18 12:16 33.320276 -116.396196 316 5115ft 79kts
13-Aug-18 12:17 33.335189 -116.415983 319 5468ft 88kts
13-Aug-18 12:18 33.352246 -116.432826 328 5474ft 82kts
13-Aug-18 12:19 33.371405 -116.448978 326 5476ft 85kts
13-Aug-18 12:20 33.389255 -116.467853 314 5480ft 85kts
13-Aug-18 12:21 33.403512 -116.488919 309 5486ft 82kts
13-Aug-18 12:22 33.417207 -116.510709 313 5488ft 82kts
13-Aug-18 12:23 33.432373 -116.531176 315 5489ft 82kts
13-Aug-18 12:24 33.448513 -116.550723 316 5489ft 82kts
13-Aug-18 12:25 33.463865 -116.571804 313 5414ft 88kts
13-Aug-18 12:26 33.480221 -116.591913 321 5407ft 82kts
13-Aug-18 12:27 33.498149 -116.608421 327 5411ft 81kts
13-Aug-18 12:28 33.515611 -116.625821 322 5415ft 82kts
13-Aug-18 12:29 33.533470 -116.642590 324 5419ft 82kts
13-Aug-18 12:30 33.550383 -116.660390 319 5421ft 82kts
13-Aug-18 12:31 33.568128 -116.677355 328 5422ft 81kts
13-Aug-18 12:32 33.586960 -116.692139 327 5420ft 81kts
13-Aug-18 12:33 33.604889 -116.708576 324 5411ft 81kts
13-Aug-18 12:34 33.622345 -116.725050 323 5409ft 79kts
13-Aug-18 12:35 33.638357 -116.746521 311 5419ft 90kts
13-Aug-18 12:36 33.653360 -116.770032 312 5417ft 87kts
13-Aug-18 12:37 33.669680 -116.790946 323 5418ft 85kts
13-Aug-18 12:38 33.689105 -116.806579 329 5418ft 85kts
13-Aug-18 12:39 33.702750 -116.819524 317 5418ft 86kts
13-Aug-18 12:40 33.719944 -116.839112 321 5418ft 85kts
13-Aug-18 12:41 33.738038 -116.857282 321 5418ft 85kts
13-Aug-18 12:42 33.755835 -116.876092 322 5418ft 85kts
13-Aug-18 12:43 33.774252 -116.893444 323 5433ft 83kts
13-Aug-18 12:44 33.791950 -116.908090 322 5454ft 75kts
13-Aug-18 12:45 33.809176 -116.923966 313 5472ft 79kts
13-Aug-18 12:46 33.824496 -116.942625 311 5487ft 76kts
13-Aug-18 12:47 33.838029 -116.961461 310 5541ft 75kts
13-Aug-18 12:48 33.852537 -116.980234 308 5496ft 79kts
13-Aug-18 12:49 33.868898 -116.998776 311 5101ft 78kts
13-Aug-18 12:50 33.884163 -117.016948 312 4908ft 78kts
13-Aug-18 12:51 33.899817 -117.034767 316 4754ft 77kts
13-Aug-18 12:52 33.915786 -117.051409 315 4652ft 76kts
13-Aug-18 12:53 33.931723 -117.067528 320 4638ft 75kts
13-Aug-18 12:54 33.947470 -117.083360 318 4663ft 74kts
13-Aug-18 12:55 33.963165 -117.099095 323 4714ft 75kts
13-Aug-18 12:56 33.976260 -117.118297 306 4584ft 73kts
13-Aug-18 12:57 33.988582 -117.137544 307 4234ft 72kts
13-Aug-18 12:58 34.000688 -117.156889 307 3866ft 73kts
13-Aug-18 12:59 34.012860 -117.176241 305 3635ft 73kts
13-Aug-18 13:00 34.024808 -117.195588 306 3409ft 72kts
13-Aug-18 13:01 34.036698 -117.214760 307 2992ft 70kts
13-Aug-18 13:02 34.048706 -117.232661 312 2591ft 64kts
13-Aug-18 13:03 34.059455 -117.248138 315 2251ft 58kts
13-Aug-18 13:04 34.071542 -117.260605 322 1917ft 55kts
13-Aug-18 13:05 34.084004 -117.266095 35 1536ft 54kts
13-Aug-18 13:06 34.090867 -117.249575 65 1114ft 56kts
13-Aug-18 13:07 34.094010 -117.242046 2 1098ft 10kts
13-Aug-18 13:08 34.097072 -117.241952 359 1099ft 22kts

Navigation Log

Ident Type
1. L08 Airport
2. KSBD Airport